SULAYMANIYAH INTERNATIONAL AIRPORT
  • SulyAir
  • SulyAir
1 1
Arrival

ArrivalsMore >>

Departure

DeparturesMore >>

TAF

TAF ORSU 230500Z 2306/2406 VRB04KT CAVOK
 TEMPO 2309/2315 29012KT 8000 NSC=

METARs

METAR ORSU 231000Z 28008KT CAVOK 31/00 Q1019=